createdAt,value
2018-09-22T00:01:49.674Z,19.7
2018-09-22T00:18:35.995Z,19.4
2018-09-22T00:35:22.450Z,19.4
2018-09-22T00:52:08.271Z,19.4
2018-09-22T01:08:54.273Z,19.4
2018-09-22T01:25:40.271Z,19.4
2018-09-22T01:42:26.441Z,19.4
2018-09-22T01:59:12.649Z,19.4
2018-09-22T02:15:59.662Z,19.4
2018-09-22T02:32:45.237Z,19.4
2018-09-22T02:49:31.550Z,19.4
2018-09-22T03:06:17.691Z,19.4
2018-09-22T03:23:03.732Z,19.4
2018-09-22T03:39:49.868Z,19.4
2018-09-22T03:56:35.964Z,19.4
2018-09-22T04:13:22.088Z,19.4
2018-09-22T04:30:08.189Z,19.4
2018-09-22T04:46:54.205Z,19.0
2018-09-22T05:03:40.156Z,19.4
2018-09-22T05:20:26.250Z,19.4
2018-09-22T05:37:12.306Z,19.0
2018-09-22T05:53:58.441Z,19.4
2018-09-22T06:10:44.639Z,19.4
2018-09-22T06:27:30.732Z,19.4
2018-09-22T06:44:16.814Z,19.4
2018-09-22T07:01:02.828Z,19.4
2018-09-22T07:17:48.772Z,19.4
2018-09-22T07:34:41.059Z,19.4
2018-09-22T07:51:21.942Z,19.7
2018-09-22T08:08:08.646Z,19.7
2018-09-22T08:24:55.301Z,20.0
2018-09-22T08:41:42.368Z,20.0
2018-09-22T08:58:29.531Z,20.3
2018-09-22T09:15:16.749Z,20.3
2018-09-22T09:32:03.950Z,20.3
2018-09-22T09:48:51.463Z,20.6
2018-09-22T10:05:39.639Z,20.6
2018-09-22T10:22:27.065Z,20.6
2018-09-22T10:39:14.747Z,21.0
2018-09-22T10:56:02.837Z,21.0
2018-09-22T11:12:51.032Z,21.0
2018-09-22T11:29:39.359Z,21.0
2018-09-22T11:46:27.648Z,21.0
2018-09-22T12:03:15.864Z,21.3
2018-09-22T12:20:04.183Z,21.3
2018-09-22T12:36:52.458Z,21.3
2018-09-22T12:53:40.920Z,21.0
2018-09-22T13:10:29.169Z,21.0
2018-09-22T13:27:17.477Z,21.0
2018-09-22T13:44:05.673Z,21.0
2018-09-22T14:00:53.943Z,21.0
2018-09-22T14:17:42.108Z,21.0
2018-09-22T14:34:30.344Z,21.0
2018-09-22T14:51:18.451Z,21.0
2018-09-22T15:08:07.725Z,20.6
2018-09-22T15:24:54.695Z,20.6
2018-09-22T15:41:42.601Z,20.6
2018-09-22T15:58:30.556Z,20.6
2018-09-22T16:15:18.726Z,20.6
2018-09-22T16:32:06.808Z,20.6
2018-09-22T16:48:54.909Z,20.6
2018-09-22T17:05:42.954Z,20.6
2018-09-22T17:22:31.079Z,20.6
2018-09-22T17:39:18.458Z,20.6
2018-09-22T17:56:05.763Z,20.3
2018-09-22T18:12:52.839Z,20.3
2018-09-22T18:29:39.981Z,20.3
2018-09-22T18:46:27.645Z,20.3
2018-09-22T19:03:14.241Z,20.3
2018-09-22T19:20:06.594Z,20.3
2018-09-22T19:36:48.389Z,20.3
2018-09-22T19:53:35.411Z,20.3
2018-09-22T20:10:22.504Z,20.0
2018-09-22T20:27:09.284Z,20.0
2018-09-22T20:43:56.149Z,20.0
2018-09-22T21:00:42.993Z,20.0
2018-09-22T21:17:29.859Z,20.0
2018-09-22T21:34:16.813Z,20.0
2018-09-22T21:51:03.649Z,20.0
2018-09-22T22:07:50.454Z,20.0
2018-09-22T22:24:37.355Z,20.0
2018-09-22T22:41:24.181Z,20.0
2018-09-22T22:58:10.968Z,20.0
2018-09-22T23:14:57.772Z,19.7
2018-09-22T23:31:44.519Z,19.7
2018-09-22T23:48:31.408Z,19.7
